Archival Weather

Chicago O'Hare International

Chicago, Illinois (KORD)

Report from: Sunday, March 6, 2022 4:51 AM CST
Current time: Saturday, February 4, 2023 9:52 PM CST

Current weather
Weather history
Weather forecast

Temperature3.9°C (39.0°F)
Wind chill-2.7°C (27.1°F)
Dew point-0.6°C (30.9°F)
Winds 26 kts (13.4 m/s, 29.9 mph) West-Southwest (250°)
Wind gusts 43 kts (22.1 m/s, 49.5 mph)
Peak wind 44 kts (22.6 m/s, 50.6 mph) West (280°) at 04:02
Visibility10 mi. (16.1 km)
Clouds Ceiling: Overcast 1,900 ft. (579 m)
Altimeter29.77 in.Hg (1008 mB)
Relative humidity72 %
Density altitude-1,081 ft. (-329 m)
Sea-level pressure100.8 kPa (1008 mB, 29.77 in.Hg)
Remarks System requires maintenance
Automated weather observing station with precipitation discriminator
Flight conditions Marginal Visual Meteorological Conditions
Raw dataKORD 061051Z 25026G43KT 10SM OVC019 04/M01 A2977 RMK AO2 PK WND 28044/1002 SLP080 T00391006 $
An unhandled exception has occurred. See browser dev tools for details. Reload 🗙